West Clarksville, New York
Current Conditions -  °F | °C
As of 12:35 AM on Tuesday 27 Jan 2015 (Local Time) from KOLE Reporting Station
Light Snow Light Snow  
Wind Chill:   Ceiling: 7000
Heat Index: 10°   Visibility: 5mi
Dew Point: 10°   Wind: 7mph
Humidity: 100%   Direction: 60°ENE
Pressure: 29.75"   Gusts: NA
Location:  42.13°N, 78.24°W
Report Text: KOLE 270535Z AUTO 06006KT 5SM -SN BKN070 OVC075 M12/M12 A2975 RMK AO2
Loading
Personal Weather Stations






























Interactive Weather Map New forecast layout! Learn more

10-Day Weather Forecast

Advertisements
Track Severe Weather on mobile